createdAt,value
2022-10-06T00:00:19.118Z,14.04
2022-10-06T00:05:21.662Z,13.84
2022-10-06T00:10:25.553Z,13.61
2022-10-06T00:15:30.183Z,13.27
2022-10-06T00:20:32.844Z,13.29
2022-10-06T00:25:36.953Z,13.06
2022-10-06T00:30:39.502Z,13.22
2022-10-06T00:35:42.048Z,13.30
2022-10-06T00:40:47.510Z,13.39
2022-10-06T00:45:50.339Z,13.45
2022-10-06T00:50:54.077Z,13.42
2022-10-06T00:55:58.041Z,13.52
2022-10-06T01:01:00.738Z,13.44
2022-10-06T01:06:03.625Z,13.46
2022-10-06T01:11:10.222Z,13.46
2022-10-06T01:16:18.552Z,13.66
2022-10-06T01:21:26.115Z,13.55
2022-10-06T01:26:31.671Z,13.56
2022-10-06T01:31:34.702Z,13.49
2022-10-06T01:36:37.409Z,13.51
2022-10-06T01:41:41.687Z,13.45
2022-10-06T01:46:44.396Z,13.43
2022-10-06T01:51:47.161Z,13.28
2022-10-06T01:56:51.735Z,13.11
2022-10-06T02:01:55.955Z,13.09
2022-10-06T02:06:58.918Z,12.94
2022-10-06T02:12:04.327Z,13.02
2022-10-06T02:17:07.495Z,12.88
2022-10-06T02:22:10.054Z,12.81
2022-10-06T02:27:14.146Z,12.75
2022-10-06T02:32:17.285Z,12.58
2022-10-06T02:37:21.668Z,12.50
2022-10-06T02:42:25.677Z,12.44
2022-10-06T02:47:29.290Z,12.47
2022-10-06T02:52:34.609Z,12.45
2022-10-06T02:57:39.095Z,12.32
2022-10-06T03:02:42.323Z,12.28
2022-10-06T03:07:45.929Z,12.38
2022-10-06T03:12:49.926Z,12.16
2022-10-06T03:17:52.659Z,12.11
2022-10-06T03:22:55.617Z,12.20
2022-10-06T03:27:59.699Z,12.19
2022-10-06T03:33:02.357Z,12.23
2022-10-06T03:38:05.141Z,12.11
2022-10-06T03:43:11.456Z,12.20
2022-10-06T03:48:14.612Z,12.06
2022-10-06T03:53:17.206Z,12.08
2022-10-06T03:58:21.301Z,12.03
2022-10-06T04:03:23.989Z,11.88
2022-10-06T04:08:27.366Z,11.88
2022-10-06T04:13:31.897Z,11.83
2022-10-06T04:18:34.834Z,11.78
2022-10-06T04:23:37.547Z,11.84
2022-10-06T04:28:44.059Z,11.85
2022-10-06T04:33:47.108Z,11.84
2022-10-06T04:38:56.198Z,11.80
2022-10-06T04:44:02.042Z,11.67
2022-10-06T04:49:05.150Z,11.65
2022-10-06T04:54:09.275Z,11.56
2022-10-06T04:59:13.243Z,11.60
2022-10-06T05:04:18.659Z,11.47
2022-10-06T05:09:21.615Z,11.55
2022-10-06T05:14:30.015Z,11.39
2022-10-06T05:19:32.657Z,11.36
2022-10-06T05:24:35.398Z,11.32
2022-10-06T05:29:40.499Z,11.32
2022-10-06T05:34:44.219Z,11.30
2022-10-06T05:39:47.457Z,11.20
2022-10-06T05:44:51.479Z,11.26
2022-10-06T05:49:55.066Z,11.19
2022-10-06T05:54:57.777Z,11.18
2022-10-06T06:00:02.346Z,11.24
2022-10-06T06:05:15.686Z,11.19
2022-10-06T06:10:18.447Z,11.06
2022-10-06T06:15:39.847Z,11.18
2022-10-06T06:20:42.855Z,11.40
2022-10-06T06:25:45.836Z,11.36
2022-10-06T06:30:49.844Z,11.46
2022-10-06T06:35:52.592Z,11.46
2022-10-06T06:40:56.460Z,11.48
2022-10-06T06:46:05.117Z,11.49
2022-10-06T06:51:33.132Z,11.54
2022-10-06T06:56:36.405Z,11.61
2022-10-06T07:01:45.703Z,12.30
2022-10-06T07:06:56.899Z,11.92
2022-10-06T07:12:00.478Z,12.25
2022-10-06T07:17:22.173Z,12.07
2022-10-06T07:22:44.635Z,12.25
2022-10-06T07:27:51.843Z,12.10
2022-10-06T07:33:00.003Z,12.17
2022-10-06T07:38:07.864Z,12.14
2022-10-06T07:43:17.392Z,12.41
2022-10-06T07:48:24.253Z,12.34
2022-10-06T07:53:35.993Z,12.51
2022-10-06T07:58:45.140Z,12.67
2022-10-06T08:03:50.597Z,12.76
2022-10-06T08:08:53.656Z,12.88
2022-10-06T08:13:56.292Z,12.88
2022-10-06T08:19:00.258Z,13.05
2022-10-06T08:24:03.092Z,13.21
2022-10-06T08:29:05.814Z,13.15
2022-10-06T08:34:11.969Z,13.31
2022-10-06T08:39:14.625Z,13.40
2022-10-06T08:44:20.383Z,13.53
2022-10-06T08:49:27.118Z,13.54
2022-10-06T08:54:36.269Z,13.62
2022-10-06T08:59:38.863Z,13.73
2022-10-06T09:04:42.959Z,13.84
2022-10-06T09:09:58.457Z,13.95
2022-10-06T09:15:16.553Z,14.11
2022-10-06T09:20:24.972Z,14.27
2022-10-06T09:25:29.047Z,14.41
2022-10-06T09:30:31.719Z,14.68
2022-10-06T09:35:36.542Z,14.82
2022-10-06T09:40:41.966Z,14.89
2022-10-06T09:45:44.528Z,14.67
2022-10-06T09:51:07.921Z,14.78
2022-10-06T09:56:15.435Z,15.16
2022-10-06T10:01:24.210Z,15.01
2022-10-06T10:06:30.011Z,15.69
2022-10-06T10:11:50.464Z,15.62
2022-10-06T10:16:53.502Z,15.84
2022-10-06T10:21:57.558Z,15.57
2022-10-06T10:27:04.135Z,15.65
2022-10-06T10:32:12.722Z,15.69
2022-10-06T10:37:19.938Z,15.76
2022-10-06T10:42:28.558Z,15.64
2022-10-06T10:47:34.165Z,15.87
2022-10-06T10:52:42.250Z,15.67
2022-10-06T10:57:45.902Z,15.40
2022-10-06T11:02:48.587Z,15.65
2022-10-06T11:07:56.924Z,15.86
2022-10-06T11:13:12.033Z,15.83
2022-10-06T11:18:24.235Z,15.21
2022-10-06T11:23:38.918Z,15.60
2022-10-06T11:28:45.662Z,16.12
2022-10-06T11:33:50.400Z,16.19
2022-10-06T11:38:58.767Z,16.05
2022-10-06T11:44:04.745Z,16.37
2022-10-06T11:49:56.823Z,16.37
2022-10-06T11:55:08.997Z,16.79
2022-10-06T12:00:44.856Z,16.81
2022-10-06T12:05:56.270Z,16.85
2022-10-06T12:11:00.614Z,16.94
2022-10-06T12:21:45.464Z,17.19
2022-10-06T12:26:55.199Z,17.16
2022-10-06T12:32:03.450Z,17.19
2022-10-06T12:37:51.515Z,16.92
2022-10-06T12:43:19.071Z,17.13
2022-10-06T12:48:25.466Z,17.21
2022-10-06T12:53:32.822Z,17.14
2022-10-06T12:58:36.881Z,16.98
2022-10-06T13:03:40.220Z,17.08
2022-10-06T13:08:42.834Z,16.91
2022-10-06T13:13:51.456Z,17.06
2022-10-06T13:18:55.821Z,17.26
2022-10-06T13:23:58.806Z,16.88
2022-10-06T13:29:02.887Z,17.18
2022-10-06T13:34:07.187Z,17.34
2022-10-06T13:39:14.028Z,16.94
2022-10-06T13:44:39.257Z,16.95
2022-10-06T13:49:47.081Z,16.86
2022-10-06T13:54:52.476Z,16.94
2022-10-06T14:00:07.448Z,16.95
2022-10-06T14:05:33.130Z,16.85
2022-10-06T14:10:47.092Z,16.81
2022-10-06T14:15:52.443Z,16.86
2022-10-06T14:20:55.425Z,16.68
2022-10-06T14:25:57.975Z,16.43
2022-10-06T14:31:01.931Z,16.58
2022-10-06T14:36:05.127Z,16.44
2022-10-06T14:41:07.700Z,16.43
2022-10-06T14:46:14.152Z,16.29
2022-10-06T14:51:17.540Z,16.53
2022-10-06T14:56:20.268Z,16.38
2022-10-06T15:01:25.674Z,16.35
2022-10-06T15:06:46.337Z,16.22
2022-10-06T15:11:48.913Z,16.19
2022-10-06T15:16:54.579Z,16.19
2022-10-06T15:21:57.281Z,16.10
2022-10-06T15:27:21.193Z,16.01
2022-10-06T15:32:27.930Z,16.00
2022-10-06T15:37:31.097Z,15.91
2022-10-06T15:42:33.626Z,15.77
2022-10-06T15:47:37.521Z,15.76
2022-10-06T15:52:40.062Z,15.67
2022-10-06T15:57:42.612Z,15.54
2022-10-06T16:02:48.020Z,15.44
2022-10-06T16:07:50.699Z,15.38
2022-10-06T16:12:53.239Z,15.24
2022-10-06T16:17:57.146Z,15.09
2022-10-06T16:22:59.722Z,15.02
2022-10-06T16:28:02.308Z,14.91
2022-10-06T16:33:06.269Z,14.77
2022-10-06T16:38:08.811Z,14.63
2022-10-06T16:43:11.363Z,14.51
2022-10-06T16:48:15.228Z,14.31
2022-10-06T16:53:18.455Z,14.19
2022-10-06T16:58:21.001Z,14.11
2022-10-06T17:03:24.945Z,13.90
2022-10-06T17:08:27.478Z,13.81
2022-10-06T17:13:30.175Z,13.75
2022-10-06T17:18:34.275Z,13.62
2022-10-06T17:23:37.027Z,13.53
2022-10-06T17:28:41.980Z,13.44
2022-10-06T17:33:46.211Z,13.30
2022-10-06T17:38:50.543Z,13.19
2022-10-06T17:43:53.164Z,13.12
2022-10-06T17:48:57.773Z,13.07
2022-10-06T17:54:01.526Z,12.94
2022-10-06T17:59:06.162Z,12.87
2022-10-06T18:04:12.144Z,12.80
2022-10-06T18:09:16.011Z,12.72
2022-10-06T18:14:19.951Z,12.63
2022-10-06T18:19:26.147Z,12.45
2022-10-06T18:24:30.554Z,12.42
2022-10-06T18:29:34.872Z,12.44
2022-10-06T18:40:06.015Z,12.18
2022-10-06T18:45:28.629Z,12.08
2022-10-06T18:50:35.328Z,11.94
2022-10-06T18:55:38.060Z,11.79
2022-10-06T19:00:40.621Z,11.80
2022-10-06T19:05:53.267Z,11.74
2022-10-06T19:11:13.298Z,11.62
2022-10-06T19:16:17.403Z,11.78
2022-10-06T19:21:21.502Z,11.61
2022-10-06T19:26:24.033Z,11.44
2022-10-06T19:31:27.131Z,11.22
2022-10-06T19:36:32.143Z,11.16
2022-10-06T19:41:52.570Z,11.14
2022-10-06T19:46:55.998Z,11.03
2022-10-06T19:51:59.898Z,10.87
2022-10-06T19:57:05.537Z,10.98
2022-10-06T20:02:10.057Z,10.92
2022-10-06T20:07:15.145Z,10.83
2022-10-06T20:12:20.985Z,10.73
2022-10-06T20:17:28.817Z,10.77
2022-10-06T20:22:32.690Z,10.72
2022-10-06T20:27:35.258Z,10.64
2022-10-06T20:32:37.821Z,10.40
2022-10-06T20:37:42.179Z,10.41
2022-10-06T20:42:49.057Z,10.35
2022-10-06T20:47:51.572Z,10.27
2022-10-06T20:52:56.634Z,10.13
2022-10-06T20:57:59.171Z,10.06
2022-10-06T21:03:02.938Z,10.03
2022-10-06T21:08:07.058Z,9.94
2022-10-06T21:13:09.857Z,9.92
2022-10-06T21:18:12.725Z,9.87
2022-10-06T21:23:17.145Z,9.81
2022-10-06T21:28:21.729Z,9.73
2022-10-06T21:33:25.073Z,9.78
2022-10-06T21:38:30.167Z,9.61
2022-10-06T21:43:32.970Z,9.57
2022-10-06T21:48:35.685Z,9.52
2022-10-06T21:53:42.197Z,9.53
2022-10-06T21:58:44.962Z,9.33
2022-10-06T22:03:47.894Z,9.31
2022-10-06T22:08:52.052Z,9.22
2022-10-06T22:13:56.177Z,9.23
2022-10-06T22:18:59.422Z,9.22
2022-10-06T22:24:05.379Z,9.18
2022-10-06T22:29:10.868Z,9.12
2022-10-06T22:34:15.111Z,8.99
2022-10-06T22:39:19.341Z,8.80
2022-10-06T22:44:22.083Z,8.89
2022-10-06T22:49:24.797Z,8.79
2022-10-06T22:54:30.090Z,8.79
2022-10-06T22:59:32.837Z,8.60
2022-10-06T23:04:35.593Z,8.94
2022-10-06T23:09:41.442Z,8.77
2022-10-06T23:14:44.192Z,8.64
2022-10-06T23:19:46.926Z,8.46
2022-10-06T23:24:51.176Z,8.54
2022-10-06T23:29:53.938Z,8.55
2022-10-06T23:34:56.692Z,8.46
2022-10-06T23:40:00.738Z,8.50
2022-10-06T23:45:03.482Z,8.35
2022-10-06T23:50:07.150Z,8.26
2022-10-06T23:55:11.295Z,8.26
